Terminal Aerodrome Forecast
Issued by NWS

Home | Current Version | Previous Version | Text Only | Print | Product List | Glossary On
Versions: 1 2 3 4 5 6 7 8 9 10 11 12 13 14 15
080
FTUS44 KLIX 240520
TAFMCB
TAF
KMCB 240520Z 2406/2506 14013G22KT P6SM OVC015
      TEMPO 2409/2412 BKN008
     FM241300 15011KT P6SM BKN025
     FM241700 16015KT P6SM BKN035
     FM250000 15012KT P6SM OVC030
     FM250300 15013KT P6SM OVC015=

USA.gov is the U.S. government's official web portal to all federal, state and local government web resources and services.